sensor_id;sensor_type;location;lat;lon;timestamp;temperature;humidity
21473;DHT22;10898;48.072;11.682;2023-09-19T00:02:03;15.40;88.70
21473;DHT22;10898;48.072;11.682;2023-09-19T00:04:38;15.50;88.80
21473;DHT22;10898;48.072;11.682;2023-09-19T00:07:12;15.50;89.10
21473;DHT22;10898;48.072;11.682;2023-09-19T00:09:27;15.50;88.70
21473;DHT22;10898;48.072;11.682;2023-09-19T00:12:10;15.50;88.80
21473;DHT22;10898;48.072;11.682;2023-09-19T00:14:25;15.50;88.60
21473;DHT22;10898;48.072;11.682;2023-09-19T00:17:09;15.50;88.60
21473;DHT22;10898;48.072;11.682;2023-09-19T00:19:53;15.50;88.50
21473;DHT22;10898;48.072;11.682;2023-09-19T00:22:52;15.50;88.20
21473;DHT22;10898;48.072;11.682;2023-09-19T00:25:02;15.50;88.40
21473;DHT22;10898;48.072;11.682;2023-09-19T00:27:38;15.50;88.50
21473;DHT22;10898;48.072;11.682;2023-09-19T00:30:22;15.60;88.30
21473;DHT22;10898;48.072;11.682;2023-09-19T00:33:19;15.60;88.60
21473;DHT22;10898;48.072;11.682;2023-09-19T00:35:35;15.60;88.40
21473;DHT22;10898;48.072;11.682;2023-09-19T00:38:27;15.60;88.70
21473;DHT22;10898;48.072;11.682;2023-09-19T00:41:04;15.60;88.90
21473;DHT22;10898;48.072;11.682;2023-09-19T00:43:46;15.60;89.00
21473;DHT22;10898;48.072;11.682;2023-09-19T00:46:07;15.60;89.10
21473;DHT22;10898;48.072;11.682;2023-09-19T00:49:14;15.60;89.20
21473;DHT22;10898;48.072;11.682;2023-09-19T00:52:07;15.60;89.50
21473;DHT22;10898;48.072;11.682;2023-09-19T00:54:53;15.60;89.40
21473;DHT22;10898;48.072;11.682;2023-09-19T00:58:00;15.60;89.40
21473;DHT22;10898;48.072;11.682;2023-09-19T01:00:43;15.60;89.20
21473;DHT22;10898;48.072;11.682;2023-09-19T01:03:00;15.60;89.10
21473;DHT22;10898;48.072;11.682;2023-09-19T01:05:56;15.60;89.50
21473;DHT22;10898;48.072;11.682;2023-09-19T01:08:16;15.60;89.70
21473;DHT22;10898;48.072;11.682;2023-09-19T01:10:29;15.60;89.70
21473;DHT22;10898;48.072;11.682;2023-09-19T01:16:11;15.60;89.90
21473;DHT22;10898;48.072;11.682;2023-09-19T01:19:43;15.60;89.50
21473;DHT22;10898;48.072;11.682;2023-09-19T01:25:14;15.60;89.10
21473;DHT22;10898;48.072;11.682;2023-09-19T01:31:15;15.60;88.50
21473;DHT22;10898;48.072;11.682;2023-09-19T01:36:37;15.60;87.00
21473;DHT22;10898;48.072;11.682;2023-09-19T01:39:05;15.60;87.60
21473;DHT22;10898;48.072;11.682;2023-09-19T01:42:37;15.60;87.60
21473;DHT22;10898;48.072;11.682;2023-09-19T01:47:45;15.70;86.20
21473;DHT22;10898;48.072;11.682;2023-09-19T01:53:10;15.70;85.70
21473;DHT22;10898;48.072;11.682;2023-09-19T01:55:52;15.70;85.90
21473;DHT22;10898;48.072;11.682;2023-09-19T01:58:59;15.80;85.80
21473;DHT22;10898;48.072;11.682;2023-09-19T02:01:44;15.80;86.70
21473;DHT22;10898;48.072;11.682;2023-09-19T02:04:32;15.80;86.00
21473;DHT22;10898;48.072;11.682;2023-09-19T02:06:54;15.80;85.90
21473;DHT22;10898;48.072;11.682;2023-09-19T02:09:49;15.80;86.30
21473;DHT22;10898;48.072;11.682;2023-09-19T02:12:09;15.80;86.70
21473;DHT22;10898;48.072;11.682;2023-09-19T02:14:39;15.80;86.10
21473;DHT22;10898;48.072;11.682;2023-09-19T02:17:06;15.80;86.40
21473;DHT22;10898;48.072;11.682;2023-09-19T02:19:57;15.80;86.50
21473;DHT22;10898;48.072;11.682;2023-09-19T02:22:23;15.80;86.30
21473;DHT22;10898;48.072;11.682;2023-09-19T02:24:33;15.80;85.50
21473;DHT22;10898;48.072;11.682;2023-09-19T02:27:13;15.80;86.10
21473;DHT22;10898;48.072;11.682;2023-09-19T02:29:48;15.80;86.60
21473;DHT22;10898;48.072;11.682;2023-09-19T02:32:28;15.80;86.80
21473;DHT22;10898;48.072;11.682;2023-09-19T02:35:29;15.80;86.70
21473;DHT22;10898;48.072;11.682;2023-09-19T02:38:16;15.80;87.10
21473;DHT22;10898;48.072;11.682;2023-09-19T02:41:19;15.80;87.00
21473;DHT22;10898;48.072;11.682;2023-09-19T02:43:51;15.80;87.40
21473;DHT22;10898;48.072;11.682;2023-09-19T02:46:20;15.80;87.50
21473;DHT22;10898;48.072;11.682;2023-09-19T02:49:19;15.80;87.20
21473;DHT22;10898;48.072;11.682;2023-09-19T02:51:51;15.80;87.40
21473;DHT22;10898;48.072;11.682;2023-09-19T02:54:23;15.80;87.20
21473;DHT22;10898;48.072;11.682;2023-09-19T02:57:25;15.80;87.30
21473;DHT22;10898;48.072;11.682;2023-09-19T02:59:41;15.80;87.50
21473;DHT22;10898;48.072;11.682;2023-09-19T03:01:54;15.80;86.30
21473;DHT22;10898;48.072;11.682;2023-09-19T03:04:02;15.80;86.10
21473;DHT22;10898;48.072;11.682;2023-09-19T03:06:28;15.80;85.50
21473;DHT22;10898;48.072;11.682;2023-09-19T03:09:00;15.80;85.60
21473;DHT22;10898;48.072;11.682;2023-09-19T03:11:56;15.80;85.50
21473;DHT22;10898;48.072;11.682;2023-09-19T03:14:26;15.70;86.50
21473;DHT22;10898;48.072;11.682;2023-09-19T03:16:54;15.70;86.10
21473;DHT22;10898;48.072;11.682;2023-09-19T03:19:43;15.70;86.50
21473;DHT22;10898;48.072;11.682;2023-09-19T03:22:40;15.70;85.90
21473;DHT22;10898;48.072;11.682;2023-09-19T03:25:12;15.60;86.70
21473;DHT22;10898;48.072;11.682;2023-09-19T03:27:16;15.70;85.80
21473;DHT22;10898;48.072;11.682;2023-09-19T03:29:54;15.60;86.30
21473;DHT22;10898;48.072;11.682;2023-09-19T03:32:08;15.70;85.50
21473;DHT22;10898;48.072;11.682;2023-09-19T03:34:50;15.70;84.80
21473;DHT22;10898;48.072;11.682;2023-09-19T03:37:23;15.60;85.90
21473;DHT22;10898;48.072;11.682;2023-09-19T03:40:02;15.70;85.80
21473;DHT22;10898;48.072;11.682;2023-09-19T03:42:50;15.70;85.00
21473;DHT22;10898;48.072;11.682;2023-09-19T03:45:35;15.70;84.60
21473;DHT22;10898;48.072;11.682;2023-09-19T03:48:33;15.80;83.70
21473;DHT22;10898;48.072;11.682;2023-09-19T03:51:07;15.80;83.40
21473;DHT22;10898;48.072;11.682;2023-09-19T03:53:35;15.80;83.00
21473;DHT22;10898;48.072;11.682;2023-09-19T03:56:12;15.80;83.20
21473;DHT22;10898;48.072;11.682;2023-09-19T03:58:27;15.80;83.00
21473;DHT22;10898;48.072;11.682;2023-09-19T04:01:35;15.80;82.90
21473;DHT22;10898;48.072;11.682;2023-09-19T04:07:44;15.80;82.40
21473;DHT22;10898;48.072;11.682;2023-09-19T04:09:46;15.80;82.50
21473;DHT22;10898;48.072;11.682;2023-09-19T04:11:51;15.80;82.80
21473;DHT22;10898;48.072;11.682;2023-09-19T04:13:53;15.80;82.70
21473;DHT22;10898;48.072;11.682;2023-09-19T04:15:55;15.80;82.40
21473;DHT22;10898;48.072;11.682;2023-09-19T04:17:57;15.80;82.30
21473;DHT22;10898;48.072;11.682;2023-09-19T04:19:59;15.90;82.10
21473;DHT22;10898;48.072;11.682;2023-09-19T04:22:01;15.90;82.00
21473;DHT22;10898;48.072;11.682;2023-09-19T04:24:03;15.90;82.00
21473;DHT22;10898;48.072;11.682;2023-09-19T04:26:05;15.90;81.60
21473;DHT22;10898;48.072;11.682;2023-09-19T04:28:07;16.00;81.90
21473;DHT22;10898;48.072;11.682;2023-09-19T04:30:11;16.00;81.60
21473;DHT22;10898;48.072;11.682;2023-09-19T04:32:14;16.00;81.30
21473;DHT22;10898;48.072;11.682;2023-09-19T04:34:17;16.00;81.10
21473;DHT22;10898;48.072;11.682;2023-09-19T04:36:19;16.00;80.90
21473;DHT22;10898;48.072;11.682;2023-09-19T04:38:36;16.00;80.60
21473;DHT22;10898;48.072;11.682;2023-09-19T04:40:38;16.00;80.70
21473;DHT22;10898;48.072;11.682;2023-09-19T04:42:41;16.00;80.50
21473;DHT22;10898;48.072;11.682;2023-09-19T04:44:43;16.00;80.80
21473;DHT22;10898;48.072;11.682;2023-09-19T04:46:45;16.00;81.00
21473;DHT22;10898;48.072;11.682;2023-09-19T04:48:50;16.00;80.40
21473;DHT22;10898;48.072;11.682;2023-09-19T04:50:52;16.00;80.70
21473;DHT22;10898;48.072;11.682;2023-09-19T04:52:54;16.00;80.30
21473;DHT22;10898;48.072;11.682;2023-09-19T04:54:56;15.90;80.60
21473;DHT22;10898;48.072;11.682;2023-09-19T04:56:58;15.90;80.70
21473;DHT22;10898;48.072;11.682;2023-09-19T04:59:00;15.90;80.80
21473;DHT22;10898;48.072;11.682;2023-09-19T05:01:02;16.00;80.40
21473;DHT22;10898;48.072;11.682;2023-09-19T05:03:04;15.90;80.20
21473;DHT22;10898;48.072;11.682;2023-09-19T05:05:08;15.90;80.20
21473;DHT22;10898;48.072;11.682;2023-09-19T05:07:12;16.00;80.00
21473;DHT22;10898;48.072;11.682;2023-09-19T05:09:16;16.00;80.10
21473;DHT22;10898;48.072;11.682;2023-09-19T05:11:21;16.00;80.40
21473;DHT22;10898;48.072;11.682;2023-09-19T05:13:24;16.00;80.40
21473;DHT22;10898;48.072;11.682;2023-09-19T05:15:29;16.00;80.00
21473;DHT22;10898;48.072;11.682;2023-09-19T05:17:30;16.00;79.80
21473;DHT22;10898;48.072;11.682;2023-09-19T05:19:32;16.00;79.70
21473;DHT22;10898;48.072;11.682;2023-09-19T05:21:35;16.00;79.80
21473;DHT22;10898;48.072;11.682;2023-09-19T05:23:37;16.00;80.00
21473;DHT22;10898;48.072;11.682;2023-09-19T05:25:40;16.00;79.80
21473;DHT22;10898;48.072;11.682;2023-09-19T05:27:43;16.00;79.80
21473;DHT22;10898;48.072;11.682;2023-09-19T05:29:45;16.00;79.60
21473;DHT22;10898;48.072;11.682;2023-09-19T05:31:47;16.00;80.10
21473;DHT22;10898;48.072;11.682;2023-09-19T05:33:49;16.00;79.70
21473;DHT22;10898;48.072;11.682;2023-09-19T05:35:51;16.00;79.50
21473;DHT22;10898;48.072;11.682;2023-09-19T05:37:54;16.10;79.00
21473;DHT22;10898;48.072;11.682;2023-09-19T05:39:57;16.10;79.30
21473;DHT22;10898;48.072;11.682;2023-09-19T05:41:59;16.10;79.50
21473;DHT22;10898;48.072;11.682;2023-09-19T05:44:02;16.10;79.50
21473;DHT22;10898;48.072;11.682;2023-09-19T05:46:04;16.10;79.70
21473;DHT22;10898;48.072;11.682;2023-09-19T05:48:16;16.10;79.70
21473;DHT22;10898;48.072;11.682;2023-09-19T05:50:18;16.10;79.60
21473;DHT22;10898;48.072;11.682;2023-09-19T05:52:21;16.10;79.40
21473;DHT22;10898;48.072;11.682;2023-09-19T05:54:24;16.10;79.20
21473;DHT22;10898;48.072;11.682;2023-09-19T05:56:25;16.10;79.20
21473;DHT22;10898;48.072;11.682;2023-09-19T05:58:28;16.10;79.20
21473;DHT22;10898;48.072;11.682;2023-09-19T06:00:30;16.10;79.30
21473;DHT22;10898;48.072;11.682;2023-09-19T06:02:33;16.00;79.70
21473;DHT22;10898;48.072;11.682;2023-09-19T06:04:35;16.00;79.70
21473;DHT22;10898;48.072;11.682;2023-09-19T06:06:37;16.00;79.70
21473;DHT22;10898;48.072;11.682;2023-09-19T06:08:40;16.00;80.00
21473;DHT22;10898;48.072;11.682;2023-09-19T06:10:42;16.10;80.50
21473;DHT22;10898;48.072;11.682;2023-09-19T06:12:44;16.10;80.60
21473;DHT22;10898;48.072;11.682;2023-09-19T06:14:47;16.20;80.60
21473;DHT22;10898;48.072;11.682;2023-09-19T06:16:50;16.20;79.90
21473;DHT22;10898;48.072;11.682;2023-09-19T06:18:52;16.30;80.00
21473;DHT22;10898;48.072;11.682;2023-09-19T06:20:54;16.40;80.00
21473;DHT22;10898;48.072;11.682;2023-09-19T06:22:57;16.40;79.80
21473;DHT22;10898;48.072;11.682;2023-09-19T06:24:59;16.50;79.60
21473;DHT22;10898;48.072;11.682;2023-09-19T06:27:00;16.50;79.50
21473;DHT22;10898;48.072;11.682;2023-09-19T06:29:02;16.60;79.20
21473;DHT22;10898;48.072;11.682;2023-09-19T06:31:05;16.60;78.90
21473;DHT22;10898;48.072;11.682;2023-09-19T06:33:11;16.60;78.50
21473;DHT22;10898;48.072;11.682;2023-09-19T06:35:17;16.70;78.60
21473;DHT22;10898;48.072;11.682;2023-09-19T06:37:19;16.70;78.40
21473;DHT22;10898;48.072;11.682;2023-09-19T06:39:24;16.80;78.50
21473;DHT22;10898;48.072;11.682;2023-09-19T06:41:27;16.80;78.90
21473;DHT22;10898;48.072;11.682;2023-09-19T06:43:29;16.80;77.50
21473;DHT22;10898;48.072;11.682;2023-09-19T06:45:32;16.90;77.60
21473;DHT22;10898;48.072;11.682;2023-09-19T06:47:34;17.00;77.70
21473;DHT22;10898;48.072;11.682;2023-09-19T06:49:37;17.00;78.00
21473;DHT22;10898;48.072;11.682;2023-09-19T06:51:38;17.00;77.60
21473;DHT22;10898;48.072;11.682;2023-09-19T06:53:40;17.10;77.40
21473;DHT22;10898;48.072;11.682;2023-09-19T06:55:42;17.20;76.70
21473;DHT22;10898;48.072;11.682;2023-09-19T06:57:49;17.20;76.50
21473;DHT22;10898;48.072;11.682;2023-09-19T06:59:50;17.20;76.50
21473;DHT22;10898;48.072;11.682;2023-09-19T07:01:52;17.20;77.30
21473;DHT22;10898;48.072;11.682;2023-09-19T07:03:54;17.20;76.20
21473;DHT22;10898;48.072;11.682;2023-09-19T07:05:56;17.20;76.70
21473;DHT22;10898;48.072;11.682;2023-09-19T07:08:00;17.30;76.80
21473;DHT22;10898;48.072;11.682;2023-09-19T07:10:05;17.30;76.80
21473;DHT22;10898;48.072;11.682;2023-09-19T07:12:07;17.40;76.80
21473;DHT22;10898;48.072;11.682;2023-09-19T07:14:09;17.40;77.20
21473;DHT22;10898;48.072;11.682;2023-09-19T07:16:14;17.50;76.20
21473;DHT22;10898;48.072;11.682;2023-09-19T07:18:29;17.50;75.40
21473;DHT22;10898;48.072;11.682;2023-09-19T07:20:31;17.50;76.10
21473;DHT22;10898;48.072;11.682;2023-09-19T07:22:34;17.60;76.30
21473;DHT22;10898;48.072;11.682;2023-09-19T07:24:36;17.60;75.50
21473;DHT22;10898;48.072;11.682;2023-09-19T07:26:41;17.50;75.90
21473;DHT22;10898;48.072;11.682;2023-09-19T07:28:43;17.50;76.10
21473;DHT22;10898;48.072;11.682;2023-09-19T07:30:45;17.50;76.60
21473;DHT22;10898;48.072;11.682;2023-09-19T07:32:47;17.50;76.30
21473;DHT22;10898;48.072;11.682;2023-09-19T07:34:49;17.50;75.00
21473;DHT22;10898;48.072;11.682;2023-09-19T07:36:51;17.50;75.10
21473;DHT22;10898;48.072;11.682;2023-09-19T07:38:53;17.50;75.70
21473;DHT22;10898;48.072;11.682;2023-09-19T07:41:04;17.50;76.10
21473;DHT22;10898;48.072;11.682;2023-09-19T07:43:07;17.50;76.10
21473;DHT22;10898;48.072;11.682;2023-09-19T07:45:10;17.50;76.10
21473;DHT22;10898;48.072;11.682;2023-09-19T07:47:20;17.50;76.20
21473;DHT22;10898;48.072;11.682;2023-09-19T07:49:22;17.50;76.20
21473;DHT22;10898;48.072;11.682;2023-09-19T07:51:24;17.60;76.50
21473;DHT22;10898;48.072;11.682;2023-09-19T07:53:26;17.60;76.50
21473;DHT22;10898;48.072;11.682;2023-09-19T07:55:29;17.70;76.70
21473;DHT22;10898;48.072;11.682;2023-09-19T07:57:31;17.80;76.50
21473;DHT22;10898;48.072;11.682;2023-09-19T07:59:36;17.80;76.20
21473;DHT22;10898;48.072;11.682;2023-09-19T08:01:39;17.90;76.20
21473;DHT22;10898;48.072;11.682;2023-09-19T08:03:42;18.00;76.10
21473;DHT22;10898;48.072;11.682;2023-09-19T08:05:45;18.00;74.60
21473;DHT22;10898;48.072;11.682;2023-09-19T08:07:47;18.00;74.40
21473;DHT22;10898;48.072;11.682;2023-09-19T08:09:54;18.00;74.70
21473;DHT22;10898;48.072;11.682;2023-09-19T08:11:56;18.10;74.70
21473;DHT22;10898;48.072;11.682;2023-09-19T08:13:59;18.10;75.10
21473;DHT22;10898;48.072;11.682;2023-09-19T08:16:01;18.20;74.70
21473;DHT22;10898;48.072;11.682;2023-09-19T08:18:03;18.20;75.10
21473;DHT22;10898;48.072;11.682;2023-09-19T08:20:05;18.30;74.00
21473;DHT22;10898;48.072;11.682;2023-09-19T08:22:07;18.30;73.80
21473;DHT22;10898;48.072;11.682;2023-09-19T08:24:11;18.30;73.40
21473;DHT22;10898;48.072;11.682;2023-09-19T08:26:13;18.40;72.70
21473;DHT22;10898;48.072;11.682;2023-09-19T08:28:15;18.40;72.10
21473;DHT22;10898;48.072;11.682;2023-09-19T08:30:22;18.40;72.70
21473;DHT22;10898;48.072;11.682;2023-09-19T08:32:29;18.50;72.80
21473;DHT22;10898;48.072;11.682;2023-09-19T08:34:31;18.60;72.80
21473;DHT22;10898;48.072;11.682;2023-09-19T08:36:36;18.70;72.10
21473;DHT22;10898;48.072;11.682;2023-09-19T08:38:38;18.70;71.40
21473;DHT22;10898;48.072;11.682;2023-09-19T08:40:40;18.70;71.80
21473;DHT22;10898;48.072;11.682;2023-09-19T08:42:54;18.60;72.80
21473;DHT22;10898;48.072;11.682;2023-09-19T08:44:58;18.80;72.00
21473;DHT22;10898;48.072;11.682;2023-09-19T08:47:29;18.80;71.80
21473;DHT22;10898;48.072;11.682;2023-09-19T08:49:58;18.90;71.30
21473;DHT22;10898;48.072;11.682;2023-09-19T08:52:19;19.00;70.30
21473;DHT22;10898;48.072;11.682;2023-09-19T08:54:25;19.00;71.10
21473;DHT22;10898;48.072;11.682;2023-09-19T08:56:32;19.10;69.60
21473;DHT22;10898;48.072;11.682;2023-09-19T08:58:49;19.10;68.70
21473;DHT22;10898;48.072;11.682;2023-09-19T09:00:53;19.10;67.50
21473;DHT22;10898;48.072;11.682;2023-09-19T09:02:56;19.10;67.80
21473;DHT22;10898;48.072;11.682;2023-09-19T09:04:59;19.10;67.40
21473;DHT22;10898;48.072;11.682;2023-09-19T09:07:02;19.10;68.30
21473;DHT22;10898;48.072;11.682;2023-09-19T09:09:05;19.10;68.70
21473;DHT22;10898;48.072;11.682;2023-09-19T09:11:07;19.20;67.80
21473;DHT22;10898;48.072;11.682;2023-09-19T09:13:09;19.20;67.10
21473;DHT22;10898;48.072;11.682;2023-09-19T09:15:12;19.20;68.20
21473;DHT22;10898;48.072;11.682;2023-09-19T09:17:18;19.30;67.70
21473;DHT22;10898;48.072;11.682;2023-09-19T09:19:22;19.30;67.50
21473;DHT22;10898;48.072;11.682;2023-09-19T09:21:27;19.40;68.00
21473;DHT22;10898;48.072;11.682;2023-09-19T09:23:29;19.40;66.70
21473;DHT22;10898;48.072;11.682;2023-09-19T09:25:53;19.40;66.40
21473;DHT22;10898;48.072;11.682;2023-09-19T09:28:03;19.40;66.60
21473;DHT22;10898;48.072;11.682;2023-09-19T09:30:05;19.40;66.60
21473;DHT22;10898;48.072;11.682;2023-09-19T09:32:18;19.40;66.50
21473;DHT22;10898;48.072;11.682;2023-09-19T09:34:21;19.40;66.10
21473;DHT22;10898;48.072;11.682;2023-09-19T09:36:38;19.40;65.90
21473;DHT22;10898;48.072;11.682;2023-09-19T09:38:44;19.30;66.80
21473;DHT22;10898;48.072;11.682;2023-09-19T09:40:51;19.20;65.70
21473;DHT22;10898;48.072;11.682;2023-09-19T09:43:37;19.30;66.20
21473;DHT22;10898;48.072;11.682;2023-09-19T09:45:41;19.30;65.70
21473;DHT22;10898;48.072;11.682;2023-09-19T09:47:50;19.40;65.60
21473;DHT22;10898;48.072;11.682;2023-09-19T09:49:56;19.50;66.00
21473;DHT22;10898;48.072;11.682;2023-09-19T09:52:09;19.60;64.30
21473;DHT22;10898;48.072;11.682;2023-09-19T09:54:20;19.60;64.00
21473;DHT22;10898;48.072;11.682;2023-09-19T09:56:22;19.70;63.40
21473;DHT22;10898;48.072;11.682;2023-09-19T09:58:24;19.70;64.20
21473;DHT22;10898;48.072;11.682;2023-09-19T10:00:30;19.90;62.20
21473;DHT22;10898;48.072;11.682;2023-09-19T10:02:43;19.90;63.40
21473;DHT22;10898;48.072;11.682;2023-09-19T10:04:48;20.00;62.20
21473;DHT22;10898;48.072;11.682;2023-09-19T10:06:53;20.10;61.70
21473;DHT22;10898;48.072;11.682;2023-09-19T10:09:07;20.10;61.70
21473;DHT22;10898;48.072;11.682;2023-09-19T10:11:16;20.10;62.60
21473;DHT22;10898;48.072;11.682;2023-09-19T10:13:20;20.10;63.40
21473;DHT22;10898;48.072;11.682;2023-09-19T10:15:26;20.20;62.40
21473;DHT22;10898;48.072;11.682;2023-09-19T10:17:34;20.30;62.00
21473;DHT22;10898;48.072;11.682;2023-09-19T10:19:40;20.30;62.80
21473;DHT22;10898;48.072;11.682;2023-09-19T10:21:50;20.30;62.20
21473;DHT22;10898;48.072;11.682;2023-09-19T10:23:53;20.50;62.60
21473;DHT22;10898;48.072;11.682;2023-09-19T10:25:59;20.50;61.10
21473;DHT22;10898;48.072;11.682;2023-09-19T10:28:06;20.60;62.30
21473;DHT22;10898;48.072;11.682;2023-09-19T10:30:14;20.70;61.50
21473;DHT22;10898;48.072;11.682;2023-09-19T10:32:18;20.80;61.50
21473;DHT22;10898;48.072;11.682;2023-09-19T10:34:22;20.80;60.70
21473;DHT22;10898;48.072;11.682;2023-09-19T10:36:26;20.90;59.70
21473;DHT22;10898;48.072;11.682;2023-09-19T10:38:28;20.80;58.70
21473;DHT22;10898;48.072;11.682;2023-09-19T10:40:33;20.80;59.10
21473;DHT22;10898;48.072;11.682;2023-09-19T10:42:38;20.80;59.30
21473;DHT22;10898;48.072;11.682;2023-09-19T10:44:45;20.90;60.20
21473;DHT22;10898;48.072;11.682;2023-09-19T10:46:47;21.00;60.40
21473;DHT22;10898;48.072;11.682;2023-09-19T10:48:50;21.00;59.80
21473;DHT22;10898;48.072;11.682;2023-09-19T10:53:08;21.20;58.10
21473;DHT22;10898;48.072;11.682;2023-09-19T10:55:16;21.20;59.00
21473;DHT22;10898;48.072;11.682;2023-09-19T10:57:24;21.30;57.30
21473;DHT22;10898;48.072;11.682;2023-09-19T10:59:26;21.30;56.50
21473;DHT22;10898;48.072;11.682;2023-09-19T11:04:22;21.30;57.20
21473;DHT22;10898;48.072;11.682;2023-09-19T11:06:25;21.30;56.80
21473;DHT22;10898;48.072;11.682;2023-09-19T11:08:27;21.30;56.10
21473;DHT22;10898;48.072;11.682;2023-09-19T11:10:46;21.40;55.50
21473;DHT22;10898;48.072;11.682;2023-09-19T11:12:49;21.40;54.70
21473;DHT22;10898;48.072;11.682;2023-09-19T11:14:51;21.30;54.70
21473;DHT22;10898;48.072;11.682;2023-09-19T11:19:17;21.10;55.40
21473;DHT22;10898;48.072;11.682;2023-09-19T11:23:34;20.90;56.80
21473;DHT22;10898;48.072;11.682;2023-09-19T11:30:26;20.90;55.60
21473;DHT22;10898;48.072;11.682;2023-09-19T11:35:11;21.10;55.50
21473;DHT22;10898;48.072;11.682;2023-09-19T11:39:30;21.30;53.40
21473;DHT22;10898;48.072;11.682;2023-09-19T11:41:39;21.30;53.30
21473;DHT22;10898;48.072;11.682;2023-09-19T11:43:42;21.30;52.20
21473;DHT22;10898;48.072;11.682;2023-09-19T11:47:51;21.30;53.40
21473;DHT22;10898;48.072;11.682;2023-09-19T11:49:53;21.40;53.50
21473;DHT22;10898;48.072;11.682;2023-09-19T11:51:56;21.50;52.40
21473;DHT22;10898;48.072;11.682;2023-09-19T11:53:59;21.50;51.90
21473;DHT22;10898;48.072;11.682;2023-09-19T11:56:04;21.60;52.20
21473;DHT22;10898;48.072;11.682;2023-09-19T11:58:08;21.70;52.50
21473;DHT22;10898;48.072;11.682;2023-09-19T12:00:17;21.70;52.50
21473;DHT22;10898;48.072;11.682;2023-09-19T12:02:38;21.70;52.20
21473;DHT22;10898;48.072;11.682;2023-09-19T12:04:43;21.80;52.80
21473;DHT22;10898;48.072;11.682;2023-09-19T12:06:56;21.90;53.50
21473;DHT22;10898;48.072;11.682;2023-09-19T12:08:59;21.90;53.00
21473;DHT22;10898;48.072;11.682;2023-09-19T12:11:01;22.00;52.80
21473;DHT22;10898;48.072;11.682;2023-09-19T12:13:03;22.10;52.10
21473;DHT22;10898;48.072;11.682;2023-09-19T12:15:07;22.20;51.70
21473;DHT22;10898;48.072;11.682;2023-09-19T12:17:09;22.20;51.50
21473;DHT22;10898;48.072;11.682;2023-09-19T12:19:21;22.30;50.70
21473;DHT22;10898;48.072;11.682;2023-09-19T12:23:26;22.30;50.70
21473;DHT22;10898;48.072;11.682;2023-09-19T12:25:42;22.30;50.60
21473;DHT22;10898;48.072;11.682;2023-09-19T12:27:49;22.30;49.90
21473;DHT22;10898;48.072;11.682;2023-09-19T12:30:01;22.30;51.50
21473;DHT22;10898;48.072;11.682;2023-09-19T12:32:35;22.30;51.00
21473;DHT22;10898;48.072;11.682;2023-09-19T12:34:37;22.40;50.60
21473;DHT22;10898;48.072;11.682;2023-09-19T12:36:44;22.30;51.20
21473;DHT22;10898;48.072;11.682;2023-09-19T12:38:48;22.40;50.80
21473;DHT22;10898;48.072;11.682;2023-09-19T12:40:51;22.50;50.40
21473;DHT22;10898;48.072;11.682;2023-09-19T12:42:57;22.50;50.60
21473;DHT22;10898;48.072;11.682;2023-09-19T12:45:07;22.50;50.40
21473;DHT22;10898;48.072;11.682;2023-09-19T12:47:17;22.40;51.00
21473;DHT22;10898;48.072;11.682;2023-09-19T12:49:22;22.40;51.30
21473;DHT22;10898;48.072;11.682;2023-09-19T12:51:35;22.50;50.70
21473;DHT22;10898;48.072;11.682;2023-09-19T12:53:43;22.50;50.40
21473;DHT22;10898;48.072;11.682;2023-09-19T12:55:58;22.50;51.80
21473;DHT22;10898;48.072;11.682;2023-09-19T12:58:11;22.70;51.10
21473;DHT22;10898;48.072;11.682;2023-09-19T13:00:15;22.90;50.90
21473;DHT22;10898;48.072;11.682;2023-09-19T13:02:19;23.00;50.30
21473;DHT22;10898;48.072;11.682;2023-09-19T13:04:25;23.10;50.60
21473;DHT22;10898;48.072;11.682;2023-09-19T13:06:37;23.20;50.60
21473;DHT22;10898;48.072;11.682;2023-09-19T13:08:40;23.30;49.30
21473;DHT22;10898;48.072;11.682;2023-09-19T13:13:23;23.40;49.00
21473;DHT22;10898;48.072;11.682;2023-09-19T13:15:52;23.50;49.30
21473;DHT22;10898;48.072;11.682;2023-09-19T13:17:54;23.60;48.50
21473;DHT22;10898;48.072;11.682;2023-09-19T13:19:56;23.60;48.30
21473;DHT22;10898;48.072;11.682;2023-09-19T13:21:59;23.70;47.60
21473;DHT22;10898;48.072;11.682;2023-09-19T13:24:21;23.70;47.70
21473;DHT22;10898;48.072;11.682;2023-09-19T13:26:25;23.80;47.00
21473;DHT22;10898;48.072;11.682;2023-09-19T13:28:27;23.80;47.00
21473;DHT22;10898;48.072;11.682;2023-09-19T13:30:30;23.80;47.80
21473;DHT22;10898;48.072;11.682;2023-09-19T13:32:33;23.90;48.20
21473;DHT22;10898;48.072;11.682;2023-09-19T13:34:35;24.00;47.00
21473;DHT22;10898;48.072;11.682;2023-09-19T13:36:37;24.00;46.50
21473;DHT22;10898;48.072;11.682;2023-09-19T13:38:40;24.00;46.40
21473;DHT22;10898;48.072;11.682;2023-09-19T13:40:48;24.00;46.10
21473;DHT22;10898;48.072;11.682;2023-09-19T13:42:50;24.00;45.90
21473;DHT22;10898;48.072;11.682;2023-09-19T13:44:56;24.10;45.90
21473;DHT22;10898;48.072;11.682;2023-09-19T13:46:58;24.20;46.40
21473;DHT22;10898;48.072;11.682;2023-09-19T13:49:00;24.30;45.40
21473;DHT22;10898;48.072;11.682;2023-09-19T13:51:04;24.30;45.30
21473;DHT22;10898;48.072;11.682;2023-09-19T13:53:06;24.20;44.60
21473;DHT22;10898;48.072;11.682;2023-09-19T13:55:08;24.20;44.60
21473;DHT22;10898;48.072;11.682;2023-09-19T13:57:10;24.20;45.00
21473;DHT22;10898;48.072;11.682;2023-09-19T13:59:12;24.20;45.50
21473;DHT22;10898;48.072;11.682;2023-09-19T14:01:14;24.30;45.90
21473;DHT22;10898;48.072;11.682;2023-09-19T14:03:16;24.40;46.10
21473;DHT22;10898;48.072;11.682;2023-09-19T14:05:18;24.60;45.80
21473;DHT22;10898;48.072;11.682;2023-09-19T14:07:20;24.60;45.40
21473;DHT22;10898;48.072;11.682;2023-09-19T14:09:22;24.70;45.80
21473;DHT22;10898;48.072;11.682;2023-09-19T14:11:25;24.90;45.00
21473;DHT22;10898;48.072;11.682;2023-09-19T14:13:27;25.00;44.30
21473;DHT22;10898;48.072;11.682;2023-09-19T14:15:29;25.00;44.20
21473;DHT22;10898;48.072;11.682;2023-09-19T14:17:31;25.00;44.60
21473;DHT22;10898;48.072;11.682;2023-09-19T14:19:33;25.00;44.70
21473;DHT22;10898;48.072;11.682;2023-09-19T14:21:36;25.00;45.50
21473;DHT22;10898;48.072;11.682;2023-09-19T14:23:41;25.00;46.20
21473;DHT22;10898;48.072;11.682;2023-09-19T14:25:47;25.10;43.90
21473;DHT22;10898;48.072;11.682;2023-09-19T14:27:49;25.00;44.00
21473;DHT22;10898;48.072;11.682;2023-09-19T14:29:51;24.60;45.50
21473;DHT22;10898;48.072;11.682;2023-09-19T14:31:53;24.60;45.90